Time;durP1;ratioP1;P1;durP2;ratioP2;P2;SDS_P1;SDS_P2;PMS_P1;PMS_P2;Temp;Humidity;BMP_temperature;BMP_pressure;BME280_temperature;BME280_humidity;BME280_pressure;Samples;Min_cycle;Max_cycle;Signal;HPM_P1;HPM_P2
2022/12/13 00:02:06;;;;;;;32.22;15.20;;;;;;;-4.73;87.04;101204.34;5016931;28;20049;-65
2022/12/13 00:04:31;;;;;;;28.92;13.60;;;;;;;-4.74;87.13;101212.72;5017225;28;20328;-65
2022/12/13 00:06:57;;;;;;;29.80;14.52;;;;;;;-4.74;87.16;101200.03;5016952;28;20026;-65
2022/12/13 00:09:22;;;;;;;28.63;14.15;;;;;;;-4.75;87.76;101205.88;5016878;28;20088;-65
2022/12/13 00:11:48;;;;;;;29.73;14.13;;;;;;;-4.75;87.23;101205.88;5048775;28;20037;-65
2022/12/13 00:14:14;;;;;;;28.98;13.80;;;;;;;-4.77;86.64;101203.94;5016435;28;20041;-65
2022/12/13 00:16:39;;;;;;;31.38;13.68;;;;;;;-4.82;87.33;101195.91;5016123;28;20053;-65
2022/12/13 00:19:05;;;;;;;28.60;13.73;;;;;;;-4.85;87.58;101190.56;5016504;28;20041;-65
2022/12/13 00:21:31;;;;;;;29.73;14.65;;;;;;;-4.87;87.27;101194.59;5016398;28;20022;-65
2022/12/13 00:23:58;;;;;;;31.50;14.32;;;;;;;-4.89;87.43;101191.91;5023397;28;20041;-65
2022/12/13 00:26:26;;;;;;;33.50;13.88;;;;;;;-4.88;87.73;101182.66;5026360;28;20295;-65
2022/12/13 00:28:52;;;;;;;31.90;14.20;;;;;;;-4.89;88.07;101181.75;5035741;28;20036;-65
2022/12/13 00:31:20;;;;;;;30.30;14.15;;;;;;;-4.90;87.40;101194.31;5027677;28;20025;-65
2022/12/13 00:33:45;;;;;;;32.58;14.20;;;;;;;-4.93;88.13;101192.38;5013286;28;20018;-65
2022/12/13 00:36:10;;;;;;;27.58;14.23;;;;;;;-4.93;88.07;101194.03;5026418;28;20181;-65
2022/12/13 00:38:36;;;;;;;30.73;14.43;;;;;;;-4.94;87.52;101193.16;5033416;28;20221;-65
2022/12/13 00:41:17;;;;;;;31.17;14.00;;;;;;;-4.92;87.73;101195.84;5026287;28;20072;-65
2022/12/13 00:43:42;;;;;;;28.88;13.65;;;;;;;-4.94;87.72;101192.25;5026082;28;20132;-65
2022/12/13 00:46:19;;;;;;;28.88;13.98;;;;;;;-4.98;88.08;101193.63;5026078;28;20264;-65
2022/12/13 00:48:49;;;;;;;27.02;13.82;;;;;;;-5.03;88.39;101192.31;5031523;28;20030;-65
2022/12/13 00:51:14;;;;;;;30.35;14.70;;;;;;;-5.15;88.72;101192.06;5031924;28;20025;-65
2022/12/13 00:53:40;;;;;;;29.25;14.32;;;;;;;-5.18;88.77;101189.25;5037483;28;20307;-65
2022/12/13 00:56:17;;;;;;;26.60;13.57;;;;;;;-5.16;88.13;101189.41;5026164;28;20020;-64
2022/12/13 00:58:42;;;;;;;30.38;14.02;;;;;;;-5.17;87.80;101182.53;5029650;28;20033;-68
2022/12/13 01:01:10;;;;;;;26.85;13.93;;;;;;;-5.18;88.47;101181.63;5015808;28;20093;-68
2022/12/13 01:03:37;;;;;;;35.65;15.27;;;;;;;-5.19;87.55;101184.94;5016129;28;20021;-68
2022/12/13 01:06:17;;;;;;;31.63;14.23;;;;;;;-5.20;88.36;101183.13;5015978;28;21145;-68
2022/12/13 01:08:43;;;;;;;28.92;13.45;;;;;;;-5.19;87.62;101173.88;5014503;28;20335;-68
2022/12/13 01:11:10;;;;;;;28.77;14.10;;;;;;;-5.18;88.16;101180.75;5015059;28;20040;-68
2022/12/13 01:13:36;;;;;;;28.98;13.88;;;;;;;-5.16;87.78;101182.66;5014946;28;20037;-68
2022/12/13 01:16:03;;;;;;;27.88;13.10;;;;;;;-5.18;87.48;101178.22;5015806;28;20024;-68
2022/12/13 01:18:29;;;;;;;30.90;14.68;;;;;;;-5.20;87.49;101175.50;5014943;28;20014;-68
2022/12/13 01:21:03;;;;;;;28.48;13.55;;;;;;;-5.22;87.22;101177.03;5014985;28;20021;-68
2022/12/13 01:23:29;;;;;;;28.75;13.45;;;;;;;-5.25;87.37;101174.22;5015116;28;20014;-70
2022/12/13 01:25:55;;;;;;;28.70;13.65;;;;;;;-5.28;87.03;101172.28;5015112;28;20025;-68
2022/12/13 01:28:21;;;;;;;30.20;14.93;;;;;;;-5.30;87.46;101171.25;5014920;28;20026;-68
2022/12/13 01:30:59;;;;;;;28.67;13.68;;;;;;;-5.29;87.36;101175.56;5014563;28;20023;-68
2022/12/13 01:33:25;;;;;;;28.95;14.20;;;;;;;-5.29;88.28;101177.22;5015036;28;20449;-68
2022/12/13 01:35:51;;;;;;;34.92;13.93;;;;;;;-5.30;87.41;101172.88;5015183;28;20188;-68
2022/12/13 01:38:16;;;;;;;33.83;14.45;;;;;;;-5.31;87.52;101181.28;5014888;28;20277;-68
2022/12/13 01:40:57;;;;;;;27.75;13.73;;;;;;;-5.33;87.75;101183.69;5015572;28;20295;-68
2022/12/13 01:43:25;;;;;;;29.00;13.65;;;;;;;-5.34;87.72;101173.38;5014936;28;20064;-68
2022/12/13 01:45:51;;;;;;;29.58;14.27;;;;;;;-5.34;88.06;101181.88;5015220;28;20056;-69
2022/12/13 01:48:19;;;;;;;32.22;14.95;;;;;;;-5.35;88.60;101182.63;5014096;28;20022;-68
2022/12/13 01:50:48;;;;;;;31.63;15.30;;;;;;;-5.41;87.64;101188.03;5014850;28;20021;-68
2022/12/13 01:53:20;;;;;;;31.00;14.82;;;;;;;-5.58;88.17;101185.56;5018555;28;20483;-68
2022/12/13 01:55:49;;;;;;;32.50;14.60;;;;;;;-5.66;88.68;101183.94;5015458;28;20017;-69
2022/12/13 01:58:15;;;;;;;31.67;15.00;;;;;;;-5.68;88.69;101181.25;5013942;28;20013;-68
2022/12/13 02:00:40;;;;;;;31.05;14.57;;;;;;;-5.67;89.70;101187.25;5015405;28;20022;-68
2022/12/13 02:03:06;;;;;;;33.63;14.32;;;;;;;-5.68;88.87;101180.38;5014704;28;20049;-68
2022/12/13 02:05:43;;;;;;;32.22;14.88;;;;;;;-5.69;88.97;101181.13;5013696;28;20029;-68
2022/12/13 02:08:12;;;;;;;33.72;15.52;;;;;;;-5.71;89.15;101180.97;5014258;28;20057;-68
2022/12/13 02:10:38;;;;;;;32.05;14.60;;;;;;;-5.74;88.52;101179.81;5046312;28;20038;-68
2022/12/13 02:13:04;;;;;;;30.38;14.32;;;;;;;-5.76;88.39;101183.09;5015359;28;20036;-68
2022/12/13 02:15:43;;;;;;;34.78;15.82;;;;;;;-5.76;88.28;101178.03;5014516;28;20030;-68
2022/12/13 02:18:23;;;;;;;29.95;15.55;;;;;;;-5.72;87.69;101178.31;5014820;28;20057;-68
2022/12/13 02:21:03;;;;;;;28.08;13.52;;;;;;;-5.74;88.31;101177.28;5014180;28;20020;-68
2022/12/13 02:23:53;;;;;;;33.53;15.27;;;;;;;-5.78;87.81;101178.63;5013142;28;20053;-68
2022/12/13 02:26:33;;;;;;;26.67;13.23;;;;;;;-5.78;87.37;101174.47;5013821;28;20080;-68
2022/12/13 02:29:32;;;;;;;29.80;14.32;;;;;;;-5.79;87.12;101177.72;5013579;28;20029;-68
2022/12/13 02:32:02;;;;;;;33.90;15.50;;;;;;;-5.81;87.56;101179.25;5013942;28;20073;-68
2022/12/13 02:34:54;;;;;;;31.98;14.65;;;;;;;-5.85;87.34;101182.25;5014230;28;20029;-68
2022/12/13 02:37:41;;;;;;;30.25;14.55;;;;;;;-5.83;87.33;101180.72;5001484;28;20034;-68
2022/12/13 02:40:16;;;;;;;29.38;14.05;;;;;;;-5.85;87.18;101174.63;5013929;28;20037;-68
2022/12/13 02:42:53;;;;;;;32.63;14.68;;;;;;;-5.83;87.41;101170.56;5014412;28;20041;-68
2022/12/13 02:45:33;;;;;;;31.05;14.45;;;;;;;-5.79;87.17;101162.50;5013612;28;20096;-68
2022/12/13 02:48:02;;;;;;;33.97;15.18;;;;;;;-5.78;86.82;101165.94;5012514;28;20053;-68
2022/12/13 02:50:29;;;;;;;30.85;14.25;;;;;;;-5.77;86.74;101163.53;5013694;28;20014;-68
2022/12/13 02:52:55;;;;;;;35.65;14.95;;;;;;;-5.77;87.51;101166.06;5013208;28;20037;-68
2022/12/13 02:55:21;;;;;;;30.67;14.55;;;;;;;-5.78;87.50;101165.94;5013695;28;20026;-68
2022/12/13 02:57:47;;;;;;;28.85;14.18;;;;;;;-5.79;86.96;101152.34;5014187;28;20030;-68
2022/12/13 03:00:18;;;;;;;33.33;14.80;;;;;;;-5.78;87.35;101153.25;5013621;28;20033;-69
2022/12/13 03:03:17;;;;;;;32.92;14.98;;;;;;;-5.81;86.27;101156.41;5015836;28;20028;-68
2022/12/13 03:09:06;;;;;;;34.10;14.35;;;;;;;-5.85;86.79;101148.34;5012861;28;20048;-69
2022/12/13 03:14:44;;;;;;;28.90;14.10;;;;;;;-5.87;86.86;101149.84;5012526;28;20029;-69
2022/12/13 03:17:13;;;;;;;31.67;13.82;;;;;;;-5.87;86.28;101145.66;5013042;28;20268;-69
2022/12/13 03:19:39;;;;;;;;;;;;;;;-5.82;86.86;101148.63;5013979;28;20029;-68
2022/12/13 03:22:05;;;;;;;34.85;15.38;;;;;;;-5.89;86.50;101152.25;5013456;28;20335;-69
2022/12/13 03:24:30;;;;;;;31.20;14.00;;;;;;;-5.91;86.24;101151.19;5013731;28;20014;-69
2022/12/13 03:26:56;;;;;;;29.83;13.48;;;;;;;-5.91;86.68;101152.84;5013431;28;20025;-68
2022/12/13 03:29:21;;;;;;;31.75;15.20;;;;;;;-5.94;87.07;101149.28;5013064;28;20184;-68
2022/12/13 03:31:46;;;;;;;29.58;14.43;;;;;;;-5.94;87.33;101150.91;5013065;28;20029;-68
2022/12/13 03:34:12;;;;;;;34.53;15.07;;;;;;;-5.96;86.78;101152.41;5013989;28;20037;-68
2022/12/13 03:36:37;;;;;;;34.97;15.32;;;;;;;-5.95;87.16;101147.50;5017697;28;20021;-68
2022/12/13 03:39:02;;;;;;;34.70;15.13;;;;;;;-5.97;87.14;101154.06;5017658;28;20021;-68
2022/12/13 03:41:31;;;;;;;34.95;15.30;;;;;;;-5.98;86.87;101148.84;5017572;28;20283;-68
2022/12/13 03:44:03;;;;;;;32.05;15.23;;;;;;;-6.00;86.71;101146.19;5017879;28;20022;-68
2022/12/13 03:46:28;;;;;;;36.13;15.20;;;;;;;-6.01;87.56;101140.97;5019121;28;20256;-68
2022/12/13 03:48:54;;;;;;;33.25;15.07;;;;;;;-6.02;87.87;101142.63;5017472;28;20060;-68
2022/12/13 03:51:19;;;;;;;29.42;14.10;;;;;;;-6.00;87.14;101142.75;5016923;28;20088;-68
2022/12/13 03:53:44;;;;;;;33.45;15.23;;;;;;;-5.98;87.56;101143.78;5017262;28;20029;-68
2022/12/13 03:56:10;;;;;;;36.33;14.25;;;;;;;-5.96;87.53;101144.81;5018008;28;20077;-68
2022/12/13 03:58:35;;;;;;;35.53;15.65;;;;;;;-5.94;87.53;101146.75;5016825;28;20083;-69
2022/12/13 04:01:01;;;;;;;35.70;15.32;;;;;;;-5.93;87.41;101140.03;5016472;28;20049;-68
2022/12/13 04:03:26;;;;;;;33.92;14.20;;;;;;;-5.93;87.48;101142.56;5017032;28;20331;-68
2022/12/13 04:05:51;;;;;;;32.20;14.90;;;;;;;-5.93;87.21;101145.09;5016934;28;20220;-68
2022/12/13 04:08:16;;;;;;;31.58;14.25;;;;;;;-5.92;87.70;101139.28;5016690;28;20029;-68
2022/12/13 04:10:42;;;;;;;31.50;14.52;;;;;;;-5.91;87.80;101141.03;5016833;28;20018;-68
2022/12/13 04:15:53;;;;;;;30.75;14.05;;;;;;;-5.89;87.24;101138.66;5016961;28;20157;-68
2022/12/13 04:18:19;;;;;;;30.17;12.93;;;;;;;-5.93;86.83;101129.88;5017030;28;20040;-69
2022/12/13 04:20:45;;;;;;;30.30;14.15;;;;;;;-5.98;87.05;101132.03;5016683;28;20041;-69
2022/12/13 04:23:10;;;;;;;36.42;15.18;;;;;;;-6.02;87.11;101127.41;5015634;28;20269;-68
2022/12/13 04:25:37;;;;;;;33.17;15.18;;;;;;;-6.03;86.26;101129.78;5015232;28;20018;-68
2022/12/13 04:28:02;;;;;;;35.25;14.63;;;;;;;-6.06;86.44;101125.31;5015420;28;20165;-68
2022/12/13 04:30:27;;;;;;;30.17;14.18;;;;;;;-6.09;87.18;101124.16;5015784;28;20034;-69
2022/12/13 04:32:53;;;;;;;28.25;14.20;;;;;;;-6.10;87.40;101125.78;5020174;28;20025;-69
2022/12/13 04:35:18;;;;;;;31.90;14.18;;;;;;;-6.10;86.67;101130.84;5015004;28;20022;-69
2022/12/13 04:37:43;;;;;;;33.35;13.95;;;;;;;-6.12;87.00;101123.09;5016363;28;20169;-65
2022/12/13 04:40:09;;;;;;;31.38;13.85;;;;;;;-6.13;86.58;101128.91;5016639;28;20093;-64
2022/12/13 04:42:35;;;;;;;31.67;14.60;;;;;;;-6.16;86.64;101123.53;5015794;28;20219;-64
2022/12/13 04:45:00;;;;;;;31.98;15.13;;;;;;;-6.16;87.33;101126.09;5016194;28;20106;-64
2022/12/13 04:47:25;;;;;;;33.30;14.85;;;;;;;-6.18;87.07;101120.00;5014852;28;20034;-64
2022/12/13 04:49:51;;;;;;;31.27;14.43;;;;;;;-6.19;86.96;101113.13;5016702;28;20022;-64
2022/12/13 04:52:16;;;;;;;32.53;14.38;;;;;;;-6.20;86.88;101108.81;5016168;28;20014;-64
2022/12/13 04:54:41;;;;;;;31.73;14.10;;;;;;;-6.20;86.85;101113.88;5014623;28;20026;-64
2022/12/13 04:57:09;;;;;;;31.33;13.98;;;;;;;-6.20;86.85;101118.06;5016238;28;20020;-64
2022/12/13 04:59:35;;;;;;;32.75;14.88;;;;;;;-6.22;86.72;101117.03;5047663;28;20022;-64
2022/12/13 05:02:01;;;;;;;34.33;15.35;;;;;;;-6.23;87.19;101118.66;5016168;28;20487;-64
2022/12/13 05:04:27;;;;;;;32.08;14.25;;;;;;;-6.24;87.00;101109.28;5015918;28;20036;-65
2022/12/13 05:06:52;;;;;;;33.40;14.07;;;;;;;-6.23;86.83;101110.16;5015809;28;20025;-68
2022/12/13 05:09:17;;;;;;;34.90;14.27;;;;;;;-6.24;87.04;101110.91;5015704;28;20029;-68
2022/12/13 05:11:43;;;;;;;31.35;14.15;;;;;;;-6.23;87.45;101118.66;5014700;28;20097;-68
2022/12/13 05:14:08;;;;;;;33.13;14.07;;;;;;;-6.23;87.00;101117.75;5015798;28;20018;-68
2022/12/13 05:16:33;;;;;;;33.90;14.63;;;;;;;-6.24;87.54;101109.28;5015479;28;20326;-68
2022/12/13 05:18:58;;;;;;;28.95;13.15;;;;;;;-6.25;87.15;101110.00;5016078;28;20041;-68
2022/12/13 05:21:24;;;;;;;34.28;14.00;;;;;;;-6.25;87.54;101107.47;5015399;28;20034;-68
2022/12/13 05:23:49;;;;;;;31.65;13.23;;;;;;;-6.25;87.37;101107.47;5015618;28;20018;-68
2022/12/13 05:26:15;;;;;;;29.25;13.75;;;;;;;-6.26;86.83;101100.59;5015507;28;20029;-68
2022/12/13 05:28:40;;;;;;;31.58;13.95;;;;;;;-6.27;87.45;101098.84;5015887;28;20037;-68
2022/12/13 05:31:08;;;;;;;34.63;14.57;;;;;;;-6.28;86.81;101107.19;5014690;28;20176;-68
2022/12/13 05:33:33;;;;;;;35.67;13.57;;;;;;;-6.30;86.85;101096.91;5019560;28;20025;-68
2022/12/13 05:35:59;;;;;;;34.58;14.60;;;;;;;-6.29;87.02;101090.19;5015444;28;20028;-68
2022/12/13 05:38:24;;;;;;;28.42;13.55;;;;;;;-6.28;87.42;101091.97;5013769;28;20234;-64
2022/12/13 05:40:49;;;;;;;32.78;14.50;;;;;;;-6.26;87.34;101087.03;5015374;28;20109;-64
2022/12/13 05:43:15;;;;;;;32.55;13.88;;;;;;;-6.25;86.88;101092.25;5014358;28;20322;-64
2022/12/13 05:45:40;;;;;;;33.30;14.15;;;;;;;-6.25;87.27;101083.78;5015166;28;20291;-64
2022/12/13 05:48:05;;;;;;;30.15;13.35;;;;;;;-6.24;87.09;101094.06;5014880;28;20026;-64
2022/12/13 05:50:31;;;;;;;31.67;13.77;;;;;;;-6.23;86.62;101094.94;5015904;28;20195;-64
2022/12/13 05:52:56;;;;;;;29.85;13.15;;;;;;;-6.25;86.31;101086.31;5014482;28;20272;-64
2022/12/13 05:55:21;;;;;;;32.72;13.40;;;;;;;-6.27;86.24;101092.84;5014155;28;20025;-64
2022/12/13 05:57:47;;;;;;;31.75;13.65;;;;;;;-6.32;86.25;101085.69;5015065;28;20023;-64
2022/12/13 06:00:12;;;;;;;31.50;14.15;;;;;;;-6.35;86.20;101080.34;5014517;28;20049;-64
2022/12/13 06:02:42;;;;;;;28.98;12.98;;;;;;;-6.34;86.89;101082.16;5030766;28;20064;-64
2022/12/13 06:05:08;;;;;;;32.63;13.10;;;;;;;-6.33;86.39;101083.94;5018131;28;20032;-64
2022/12/13 06:07:34;;;;;;;28.55;12.68;;;;;;;-6.34;85.99;101086.34;5013749;28;20261;-64
2022/12/13 06:09:59;;;;;;;32.05;14.98;;;;;;;-6.36;86.17;101087.81;5014930;28;20037;-65
2022/12/13 06:12:24;;;;;;;28.85;13.80;;;;;;;-6.38;86.44;101094.38;5014397;28;20041;-64
2022/12/13 06:14:50;;;;;;;30.83;13.73;;;;;;;-6.37;86.73;101096.16;5013300;28;20663;-64
2022/12/13 06:17:15;;;;;;;31.08;13.68;;;;;;;-6.37;86.45;101096.16;5014466;28;20096;-64
2022/12/13 06:19:40;;;;;;;31.88;13.13;;;;;;;-6.39;86.08;101090.94;5014942;28;20265;-64
2022/12/13 06:22:06;;;;;;;31.27;13.05;;;;;;;-6.38;86.91;101082.59;5016582;28;20033;-64
2022/12/13 06:24:31;;;;;;;32.35;13.25;;;;;;;-6.38;86.68;101087.66;5025462;28;20046;-64
2022/12/13 06:26:57;;;;;;;31.25;13.48;;;;;;;-6.37;86.48;101096.16;5024269;28;20203;-64
2022/12/13 06:29:22;;;;;;;27.73;12.88;;;;;;;-6.38;86.44;101099.47;5024173;28;20032;-65
2022/12/13 06:31:54;;;;;;;35.13;13.73;;;;;;;-6.42;86.22;101099.91;5024401;28;20017;-64
2022/12/13 06:34:19;;;;;;;29.90;13.75;;;;;;;-6.44;86.24;101096.31;5036797;28;20270;-64
2022/12/13 06:36:44;;;;;;;30.70;13.68;;;;;;;-6.43;86.40;101093.06;5031145;28;20096;-65
2022/12/13 06:39:10;;;;;;;28.88;12.52;;;;;;;-6.44;86.59;101092.16;5024288;28;20025;-64
2022/12/13 06:41:35;;;;;;;29.25;13.05;;;;;;;-6.48;86.26;101093.50;5024196;28;20183;-64
2022/12/13 06:44:01;;;;;;;31.05;13.32;;;;;;;-6.52;86.46;101099.00;5033456;28;20029;-65
2022/12/13 06:46:26;;;;;;;30.70;13.85;;;;;;;-6.53;86.37;101097.25;5024382;28;20028;-64
2022/12/13 06:48:52;;;;;;;30.98;13.82;;;;;;;-6.55;86.52;101097.84;5032827;28;20179;-64
2022/12/13 06:51:18;;;;;;;30.73;13.13;;;;;;;-6.57;86.74;101096.81;5024106;28;20014;-64
2022/12/13 06:53:43;;;;;;;29.90;13.88;;;;;;;-6.57;87.02;101097.69;5023946;28;20196;-65
2022/12/13 06:56:11;;;;;;;35.17;13.95;;;;;;;-6.57;86.77;101087.56;5023972;28;20028;-64
2022/12/13 06:58:36;;;;;;;33.42;14.00;;;;;;;-6.57;86.74;101092.63;5031127;28;20029;-64
2022/12/13 07:01:02;;;;;;;27.75;13.38;;;;;;;-6.59;87.15;101089.06;5024067;28;20076;-64
2022/12/13 07:03:28;;;;;;;33.70;14.23;;;;;;;-6.59;86.75;101094.13;5024077;28;20018;-65
2022/12/13 07:05:54;;;;;;;32.47;14.85;;;;;;;-6.61;86.68;101090.53;5022735;28;20315;-64
2022/12/13 07:08:19;;;;;;;31.02;14.38;;;;;;;-6.62;86.77;101087.88;5024428;28;20026;-65
2022/12/13 07:10:45;;;;;;;35.60;14.32;;;;;;;-6.62;86.65;101086.22;5034944;28;20022;-64
2022/12/13 07:13:11;;;;;;;31.10;14.60;;;;;;;-6.64;87.10;101096.22;5027496;28;20047;-64
2022/12/13 07:15:36;;;;;;;31.13;14.38;;;;;;;-6.65;86.78;101094.44;5023849;28;20272;-65
2022/12/13 07:18:02;;;;;;;31.95;14.00;;;;;;;-6.63;86.58;101092.06;5034198;28;20044;-68
2022/12/13 07:20:27;;;;;;;32.88;13.95;;;;;;;-6.63;86.72;101089.53;5018050;28;20064;-68
2022/12/13 07:22:55;;;;;;;33.45;14.60;;;;;;;-6.65;87.03;101091.91;5022600;28;20026;-68
2022/12/13 07:25:21;;;;;;;32.28;13.50;;;;;;;-6.65;86.78;101094.44;5016127;28;20088;-68
2022/12/13 07:27:47;;;;;;;33.90;15.00;;;;;;;-6.64;86.64;101095.31;5012798;28;20026;-68
2022/12/13 07:30:13;;;;;;;31.77;13.43;;;;;;;-6.62;87.20;101092.94;5013814;28;20018;-68
2022/12/13 07:32:38;;;;;;;32.85;14.82;;;;;;;-6.61;87.15;101094.72;5013851;28;20093;-68
2022/12/13 07:35:03;;;;;;;34.50;15.60;;;;;;;-6.62;86.66;101091.28;5013589;28;20303;-68
2022/12/13 07:37:29;;;;;;;33.90;14.93;;;;;;;-6.63;87.20;101092.06;5012601;28;20022;-68
2022/12/13 07:39:54;;;;;;;37.00;16.02;;;;;;;-6.63;87.19;101092.06;5012966;28;20018;-68
2022/12/13 07:42:19;;;;;;;40.75;15.35;;;;;;;-6.62;87.04;101093.81;5013383;28;20158;-68
2022/12/13 07:44:45;;;;;;;34.63;15.57;;;;;;;-6.59;87.57;101095.75;5013448;28;20053;-69
2022/12/13 07:47:10;;;;;;;41.42;17.23;;;;;;;-6.59;87.20;101096.69;5012998;28;20287;-64
2022/12/13 07:49:35;;;;;;;36.33;15.68;;;;;;;-6.60;87.04;101099.94;5013656;28;20269;-64
2022/12/13 07:52:01;;;;;;;41.83;17.27;;;;;;;-6.60;87.76;101099.94;5012115;28;20096;-64
2022/12/13 07:54:26;;;;;;;44.40;18.30;;;;;;;-6.59;87.69;101101.75;5013287;28;20047;-65
2022/12/13 07:56:51;;;;;;;39.45;18.55;;;;;;;-6.57;87.75;101107.84;5013039;28;20057;-64
2022/12/13 07:59:16;;;;;;;47.13;19.08;;;;;;;-6.55;87.82;101111.41;5013217;28;20026;-64
2022/12/13 08:01:42;;;;;;;43.72;18.25;;;;;;;-6.52;87.68;101109.16;5012886;28;20021;-65
2022/12/13 08:04:07;;;;;;;38.72;17.17;;;;;;;-6.50;87.89;101110.22;5012798;28;20278;-64
2022/12/13 08:06:36;;;;;;;36.50;16.27;;;;;;;-6.46;88.29;101106.31;5012546;28;20044;-64
2022/12/13 08:09:02;;;;;;;;;;;;;;;-6.39;87.77;101106.16;5013439;28;20034;-64
2022/12/13 08:11:27;;;;;;;39.25;16.52;;;;;;;-6.37;87.79;101111.38;5012498;28;19913;-65
2022/12/13 08:13:52;;;;;;;37.90;15.65;;;;;;;-6.37;87.59;101098.69;5013386;28;20343;-64
2022/12/13 08:16:18;;;;;;;41.28;16.75;;;;;;;-6.37;88.21;101096.16;5013533;28;20022;-64
2022/12/13 08:18:46;;;;;;;38.78;16.15;;;;;;;-6.35;87.97;101103.16;5013605;28;20211;-64
2022/12/13 08:21:11;;;;;;;40.13;17.00;;;;;;;-6.33;88.33;101095.72;5012895;28;20269;-64
2022/12/13 08:23:36;;;;;;;38.83;17.50;;;;;;;-6.31;88.94;101105.25;5016413;28;20017;-64
2022/12/13 08:26:03;;;;;;;39.45;17.55;;;;;;;-6.26;88.71;101109.88;5024439;28;20033;-64
2022/12/13 08:28:29;;;;;;;43.90;17.83;;;;;;;-6.25;88.69;101106.59;5026569;28;20085;-64
2022/12/13 08:30:55;;;;;;;41.17;18.02;;;;;;;-6.23;88.78;101116.09;5026044;28;20161;-64
2022/12/13 08:33:21;;;;;;;43.45;18.08;;;;;;;-6.20;89.07;101111.34;5030050;28;20024;-65
2022/12/13 08:35:47;;;;;;;40.38;17.70;;;;;;;-6.18;89.26;101109.84;5038400;28;20020;-64
2022/12/13 08:38:12;;;;;;;42.47;17.38;;;;;;;-6.15;89.35;101115.19;5028920;28;20059;-64
2022/12/13 08:40:38;;;;;;;40.88;17.73;;;;;;;-6.10;89.31;101117.28;5030411;28;20110;-65
2022/12/13 08:43:03;;;;;;;40.20;18.20;;;;;;;-6.06;89.77;101109.22;5034943;28;20040;-64
2022/12/13 08:45:31;;;;;;;41.28;18.20;;;;;;;-6.03;90.07;101114.56;5026105;28;20061;-65
2022/12/13 08:47:58;;;;;;;38.72;17.77;;;;;;;-5.97;90.90;101115.13;5017156;28;20030;-68
2022/12/13 08:50:24;;;;;;;43.63;18.80;;;;;;;-5.91;90.50;101123.28;5032655;28;20038;-68
2022/12/13 08:52:50;;;;;;;41.67;18.27;;;;;;;-5.86;91.06;101122.09;5029515;28;20052;-68
2022/12/13 08:55:15;;;;;;;47.42;20.15;;;;;;;-5.81;92.40;101125.97;5026834;28;20030;-68
2022/12/13 08:57:42;;;;;;;42.50;19.40;;;;;;;-5.76;92.30;101131.47;5016172;28;20064;-67
2022/12/13 09:00:11;;;;;;;53.13;22.02;;;;;;;-5.70;92.23;101133.69;5015700;28;20025;-68
2022/12/13 09:02:36;;;;;;;52.88;22.25;;;;;;;-5.64;92.36;101142.72;5016164;28;20028;-68
2022/12/13 09:05:02;;;;;;;46.45;20.17;;;;;;;-5.55;93.48;101137.59;5016192;28;20026;-68
2022/12/13 09:07:28;;;;;;;52.20;20.98;;;;;;;-5.47;95.15;101134.16;5015441;28;20177;-68
2022/12/13 09:09:53;;;;;;;49.15;20.58;;;;;;;-5.40;95.01;101128.00;5015317;28;20299;-68
2022/12/13 09:12:18;;;;;;;45.95;20.50;;;;;;;-5.32;95.65;101128.69;5015054;28;20033;-68
2022/12/13 09:14:45;;;;;;;50.47;20.83;;;;;;;-5.24;95.60;101132.81;5015743;28;20232;-68
2022/12/13 09:17:10;;;;;;;50.10;21.33;;;;;;;-5.17;96.08;101122.47;5015726;28;20022;-64
2022/12/13 09:19:36;;;;;;;47.60;21.20;;;;;;;-5.13;96.64;101136.31;5015958;28;20080;-64
2022/12/13 09:22:01;;;;;;;48.58;20.55;;;;;;;-5.08;96.95;101133.44;5015450;28;20026;-64
2022/12/13 09:24:27;;;;;;;51.35;20.00;;;;;;;-5.02;96.97;101133.13;5015302;28;20134;-65
2022/12/13 09:26:52;;;;;;;44.75;19.52;;;;;;;-4.96;96.89;101133.66;5014664;28;20176;-64
2022/12/13 09:29:17;;;;;;;44.65;20.25;;;;;;;-4.89;96.58;101130.03;5015278;28;20060;-65
2022/12/13 09:31:43;;;;;;;50.33;20.42;;;;;;;-4.83;97.52;101135.66;5015120;28;20220;-64
2022/12/13 09:34:09;;;;;;;46.60;20.17;;;;;;;-4.77;97.16;101130.22;5015249;28;20009;-64
2022/12/13 09:36:34;;;;;;;49.53;20.67;;;;;;;-4.69;96.73;101134.38;5014929;28;20311;-64
2022/12/13 09:39:00;;;;;;;49.10;20.88;;;;;;;-4.63;96.66;101129.81;5014759;28;20025;-64
2022/12/13 09:41:34;;;;;;;49.30;20.42;;;;;;;-4.57;97.60;101132.00;5014785;28;20206;-64
2022/12/13 09:44:23;;;;;;;50.95;22.17;;;;;;;-4.52;96.97;101137.50;5013435;28;20049;-64
2022/12/13 09:46:51;;;;;;;46.10;19.52;;;;;;;-4.47;96.76;101129.53;5015557;28;20045;-64
2022/12/13 09:49:27;;;;;;;49.25;21.25;;;;;;;-4.41;97.29;101131.72;5014537;28;20029;-64
2022/12/13 09:51:55;;;;;;;50.38;20.67;;;;;;;-4.35;97.00;101131.38;5013444;28;20057;-65
2022/12/13 09:54:23;;;;;;;40.50;18.80;;;;;;;-4.31;97.37;101124.13;5016672;28;20025;-64
2022/12/13 09:56:49;;;;;;;54.78;21.75;;;;;;;-4.25;96.98;101123.78;5023788;28;20091;-64
2022/12/13 09:59:16;;;;;;;51.33;21.25;;;;;;;-4.21;97.96;101120.75;5027895;28;20029;-64
2022/12/13 10:01:42;;;;;;;51.08;21.45;;;;;;;-4.16;96.80;101114.38;5029989;28;20300;-64
2022/12/13 10:04:11;;;;;;;47.40;20.55;;;;;;;-4.13;96.69;101116.31;5024558;28;20025;-64
2022/12/13 10:06:37;;;;;;;50.30;21.88;;;;;;;-4.09;96.76;101116.69;5025926;28;20025;-64
2022/12/13 10:09:07;;;;;;;53.60;20.92;;;;;;;-4.06;96.92;101113.53;5037950;28;20029;-64
2022/12/13 10:11:32;;;;;;;49.83;21.25;;;;;;;-4.02;97.10;101108.84;5023604;28;20164;-64
2022/12/13 10:14:07;;;;;;;47.90;21.10;;;;;;;-3.94;97.00;101108.59;5024581;28;20032;-64
2022/12/13 10:16:42;;;;;;;49.75;21.20;;;;;;;-3.87;96.83;101108.38;5024776;28;20006;-64
2022/12/13 10:19:28;;;;;;;52.45;21.75;;;;;;;-3.82;97.19;101096.03;5036164;28;20005;-64
2022/12/13 10:21:53;;;;;;;49.40;20.70;;;;;;;-3.78;96.62;101083.72;5023864;28;20022;-64
2022/12/13 10:24:26;;;;;;;50.13;21.75;;;;;;;-3.73;96.64;101097.69;5024561;28;20033;-64
2022/12/13 10:26:52;;;;;;;47.30;20.27;;;;;;;-3.72;96.21;101103.66;5024799;28;20249;-64
2022/12/13 10:29:18;;;;;;;47.22;20.70;;;;;;;-3.69;96.74;101092.09;5024430;28;20081;-64
2022/12/13 10:31:47;;;;;;;52.00;21.00;;;;;;;-3.68;95.48;101083.72;5024767;28;20179;-64
2022/12/13 10:34:35;;;;;;;51.00;20.53;;;;;;;-3.68;95.92;101081.16;5024499;28;20077;-64
2022/12/13 10:37:30;;;;;;;52.25;21.42;;;;;;;-3.64;95.20;101078.88;5026902;28;20010;-64
2022/12/13 10:39:57;;;;;;;45.33;20.42;;;;;;;-3.61;95.90;101079.13;5023007;28;20017;-64
2022/12/13 10:42:22;;;;;;;48.63;21.00;;;;;;;-3.60;95.00;101076.72;5024434;28;20032;-64
2022/12/13 10:44:50;;;;;;;51.45;22.05;;;;;;;-3.57;95.32;101068.44;5022940;28;20038;-64
2022/12/13 10:47:24;;;;;;;49.75;20.77;;;;;;;-3.56;94.89;101068.56;5041351;28;20049;-64
2022/12/13 10:49:52;;;;;;;48.72;21.42;;;;;;;-3.54;95.48;101064.47;5061850;28;20033;-64
2022/12/13 10:52:29;;;;;;;45.22;20.23;;;;;;;-3.48;95.64;101068.31;5024072;28;20257;-64
2022/12/13 10:54:56;;;;;;;44.78;19.95;;;;;;;-3.46;95.54;101061.69;5024972;28;20244;-64
2022/12/13 10:57:22;;;;;;;45.83;21.38;;;;;;;-3.40;96.18;101052.03;5024109;28;20018;-65
2022/12/13 10:59:49;;;;;;;49.88;21.35;;;;;;;-3.33;95.78;101049.22;5023950;28;20215;-64
2022/12/13 11:02:31;;;;;;;45.97;19.92;;;;;;;-3.25;95.86;101048.16;5024067;28;20256;-64
2022/12/13 11:04:58;;;;;;;45.17;19.65;;;;;;;-3.19;95.65;101037.59;5024542;28;20182;-64
2022/12/13 11:07:31;;;;;;;41.63;19.83;;;;;;;-3.13;95.28;101032.97;5031240;28;20029;-64
2022/12/13 11:10:13;;;;;;;44.80;20.23;;;;;;;-3.08;94.82;101036.81;5027041;28;20028;-65
2022/12/13 11:12:39;;;;;;;43.72;19.20;;;;;;;-3.04;93.72;101033.75;5023898;28;20264;-64
2022/12/13 11:15:06;;;;;;;42.40;19.08;;;;;;;-3.03;93.72;101029.53;5026950;28;20021;-64
2022/12/13 11:17:48;;;;;;;44.60;19.75;;;;;;;-2.98;93.88;101024.03;5026763;28;20279;-68
2022/12/13 11:20:26;;;;;;;41.83;19.70;;;;;;;-2.92;93.26;101022.78;5016729;28;20280;-68
2022/12/13 11:23:11;;;;;;;42.88;19.65;;;;;;;-2.88;93.04;101029.88;5023704;28;20255;-68